sensor_id;sensor_type;location;lat;lon;timestamp;P1;durP1;ratioP1;P2;durP2;ratioP2
54575;SDS011;40472;53.486;14.542;2022-10-15T00:00:39;46.13;;;21.17;;
54575;SDS011;40472;53.486;14.542;2022-10-15T00:03:05;52.75;;;22.65;;
54575;SDS011;40472;53.486;14.542;2022-10-15T00:05:31;40.80;;;20.48;;
54575;SDS011;40472;53.486;14.542;2022-10-15T00:07:56;46.22;;;21.42;;
54575;SDS011;40472;53.486;14.542;2022-10-15T00:10:22;45.00;;;21.38;;
54575;SDS011;40472;53.486;14.542;2022-10-15T00:12:48;37.15;;;20.02;;
54575;SDS011;40472;53.486;14.542;2022-10-15T00:15:14;42.40;;;21.50;;
54575;SDS011;40472;53.486;14.542;2022-10-15T00:17:40;45.38;;;21.35;;
54575;SDS011;40472;53.486;14.542;2022-10-15T00:20:07;52.58;;;23.60;;
54575;SDS011;40472;53.486;14.542;2022-10-15T00:22:34;55.13;;;23.45;;
54575;SDS011;40472;53.486;14.542;2022-10-15T00:25:01;61.13;;;23.77;;
54575;SDS011;40472;53.486;14.542;2022-10-15T00:27:28;52.50;;;22.23;;
54575;SDS011;40472;53.486;14.542;2022-10-15T00:29:53;50.40;;;22.98;;
54575;SDS011;40472;53.486;14.542;2022-10-15T00:32:19;39.58;;;21.17;;
54575;SDS011;40472;53.486;14.542;2022-10-15T00:34:45;55.63;;;22.27;;
54575;SDS011;40472;53.486;14.542;2022-10-15T00:37:11;45.15;;;21.30;;
54575;SDS011;40472;53.486;14.542;2022-10-15T00:39:37;42.25;;;21.50;;
54575;SDS011;40472;53.486;14.542;2022-10-15T00:42:03;49.75;;;22.50;;
54575;SDS011;40472;53.486;14.542;2022-10-15T00:46:56;41.83;;;21.23;;
54575;SDS011;40472;53.486;14.542;2022-10-15T00:50:21;43.25;;;21.45;;
54575;SDS011;40472;53.486;14.542;2022-10-15T00:52:31;48.85;;;21.70;;
54575;SDS011;40472;53.486;14.542;2022-10-15T00:55:09;46.53;;;21.13;;
54575;SDS011;40472;53.486;14.542;2022-10-15T00:57:42;54.65;;;23.25;;
54575;SDS011;40472;53.486;14.542;2022-10-15T01:00:12;49.40;;;21.75;;
54575;SDS011;40472;53.486;14.542;2022-10-15T01:02:39;52.05;;;22.67;;
54575;SDS011;40472;53.486;14.542;2022-10-15T01:05:05;50.35;;;21.92;;
54575;SDS011;40472;53.486;14.542;2022-10-15T01:07:32;57.90;;;23.67;;
54575;SDS011;40472;53.486;14.542;2022-10-15T01:09:58;51.70;;;23.48;;
54575;SDS011;40472;53.486;14.542;2022-10-15T01:12:27;56.53;;;21.83;;
54575;SDS011;40472;53.486;14.542;2022-10-15T01:15:02;46.47;;;21.95;;
54575;SDS011;40472;53.486;14.542;2022-10-15T01:22:45;52.47;;;21.80;;
54575;SDS011;40472;53.486;14.542;2022-10-15T01:31:08;48.78;;;20.45;;
54575;SDS011;40472;53.486;14.542;2022-10-15T01:33:48;52.60;;;22.30;;
54575;SDS011;40472;53.486;14.542;2022-10-15T01:36:30;42.88;;;21.10;;
54575;SDS011;40472;53.486;14.542;2022-10-15T01:39:03;50.92;;;23.08;;
54575;SDS011;40472;53.486;14.542;2022-10-15T01:41:39;47.03;;;22.55;;
54575;SDS011;40472;53.486;14.542;2022-10-15T01:44:41;48.40;;;21.70;;
54575;SDS011;40472;53.486;14.542;2022-10-15T01:47:11;46.50;;;22.10;;
54575;SDS011;40472;53.486;14.542;2022-10-15T01:49:45;47.33;;;21.95;;
54575;SDS011;40472;53.486;14.542;2022-10-15T01:52:14;53.17;;;22.13;;
54575;SDS011;40472;53.486;14.542;2022-10-15T01:54:44;43.25;;;21.42;;
54575;SDS011;40472;53.486;14.542;2022-10-15T01:57:11;54.53;;;22.83;;
54575;SDS011;40472;53.486;14.542;2022-10-15T01:59:38;43.20;;;21.45;;
54575;SDS011;40472;53.486;14.542;2022-10-15T02:02:06;40.40;;;21.38;;
54575;SDS011;40472;53.486;14.542;2022-10-15T02:04:32;57.03;;;23.00;;
54575;SDS011;40472;53.486;14.542;2022-10-15T02:09:51;44.28;;;21.85;;
54575;SDS011;40472;53.486;14.542;2022-10-15T02:20:27;58.53;;;22.27;;
54575;SDS011;40472;53.486;14.542;2022-10-15T02:23:20;58.30;;;22.98;;
54575;SDS011;40472;53.486;14.542;2022-10-15T02:25:46;55.20;;;21.90;;
54575;SDS011;40472;53.486;14.542;2022-10-15T02:28:14;55.00;;;23.48;;
54575;SDS011;40472;53.486;14.542;2022-10-15T02:30:42;43.38;;;21.83;;
54575;SDS011;40472;53.486;14.542;2022-10-15T02:33:12;45.78;;;21.88;;
54575;SDS011;40472;53.486;14.542;2022-10-15T02:35:41;48.33;;;22.27;;
54575;SDS011;40472;53.486;14.542;2022-10-15T02:38:09;49.05;;;21.50;;
54575;SDS011;40472;53.486;14.542;2022-10-15T02:40:38;49.53;;;22.95;;
54575;SDS011;40472;53.486;14.542;2022-10-15T02:43:08;52.45;;;22.45;;
54575;SDS011;40472;53.486;14.542;2022-10-15T02:45:38;45.03;;;21.50;;
54575;SDS011;40472;53.486;14.542;2022-10-15T02:48:04;56.83;;;23.10;;
54575;SDS011;40472;53.486;14.542;2022-10-15T02:50:30;54.60;;;22.92;;
54575;SDS011;40472;53.486;14.542;2022-10-15T02:52:56;50.33;;;22.70;;
54575;SDS011;40472;53.486;14.542;2022-10-15T02:55:21;57.83;;;25.02;;
54575;SDS011;40472;53.486;14.542;2022-10-15T02:57:47;65.93;;;25.05;;
54575;SDS011;40472;53.486;14.542;2022-10-15T03:00:13;53.85;;;23.52;;
54575;SDS011;40472;53.486;14.542;2022-10-15T03:02:39;47.67;;;22.20;;
54575;SDS011;40472;53.486;14.542;2022-10-15T03:05:05;59.00;;;24.60;;
54575;SDS011;40472;53.486;14.542;2022-10-15T03:07:30;62.25;;;25.67;;
54575;SDS011;40472;53.486;14.542;2022-10-15T03:09:56;47.17;;;22.90;;
54575;SDS011;40472;53.486;14.542;2022-10-15T03:12:22;58.60;;;24.52;;
54575;SDS011;40472;53.486;14.542;2022-10-15T03:14:50;47.13;;;22.50;;
54575;SDS011;40472;53.486;14.542;2022-10-15T03:17:16;52.00;;;22.17;;
54575;SDS011;40472;53.486;14.542;2022-10-15T03:19:41;49.65;;;23.42;;
54575;SDS011;40472;53.486;14.542;2022-10-15T03:22:08;48.00;;;22.27;;
54575;SDS011;40472;53.486;14.542;2022-10-15T03:24:33;44.83;;;20.92;;
54575;SDS011;40472;53.486;14.542;2022-10-15T03:26:59;51.15;;;23.42;;
54575;SDS011;40472;53.486;14.542;2022-10-15T03:29:25;49.63;;;22.08;;
54575;SDS011;40472;53.486;14.542;2022-10-15T03:31:50;60.70;;;25.08;;
54575;SDS011;40472;53.486;14.542;2022-10-15T03:34:16;56.85;;;23.65;;
54575;SDS011;40472;53.486;14.542;2022-10-15T03:36:43;51.50;;;23.98;;
54575;SDS011;40472;53.486;14.542;2022-10-15T03:39:09;54.85;;;23.70;;
54575;SDS011;40472;53.486;14.542;2022-10-15T03:41:37;51.30;;;22.08;;
54575;SDS011;40472;53.486;14.542;2022-10-15T03:44:04;51.63;;;23.35;;
54575;SDS011;40472;53.486;14.542;2022-10-15T03:46:31;57.42;;;26.08;;
54575;SDS011;40472;53.486;14.542;2022-10-15T03:48:57;55.08;;;23.77;;
54575;SDS011;40472;53.486;14.542;2022-10-15T03:51:23;55.25;;;23.77;;
54575;SDS011;40472;53.486;14.542;2022-10-15T03:53:49;56.78;;;25.83;;
54575;SDS011;40472;53.486;14.542;2022-10-15T03:56:14;55.60;;;24.33;;
54575;SDS011;40472;53.486;14.542;2022-10-15T03:58:40;60.10;;;25.20;;
54575;SDS011;40472;53.486;14.542;2022-10-15T04:01:08;49.30;;;23.20;;
54575;SDS011;40472;53.486;14.542;2022-10-15T04:03:35;54.72;;;24.25;;
54575;SDS011;40472;53.486;14.542;2022-10-15T04:06:01;42.08;;;20.35;;
54575;SDS011;40472;53.486;14.542;2022-10-15T04:08:26;47.25;;;20.90;;
54575;SDS011;40472;53.486;14.542;2022-10-15T04:10:52;69.30;;;23.13;;
54575;SDS011;40472;53.486;14.542;2022-10-15T04:13:18;47.03;;;21.40;;
54575;SDS011;40472;53.486;14.542;2022-10-15T04:15:44;47.53;;;20.08;;
54575;SDS011;40472;53.486;14.542;2022-10-15T04:18:10;43.05;;;21.30;;
54575;SDS011;40472;53.486;14.542;2022-10-15T04:20:36;42.97;;;19.73;;
54575;SDS011;40472;53.486;14.542;2022-10-15T04:23:02;43.70;;;18.17;;
54575;SDS011;40472;53.486;14.542;2022-10-15T04:25:28;70.35;;;22.58;;
54575;SDS011;40472;53.486;14.542;2022-10-15T04:27:53;173.00;;;23.60;;
54575;SDS011;40472;53.486;14.542;2022-10-15T04:30:19;52.95;;;21.38;;
54575;SDS011;40472;53.486;14.542;2022-10-15T04:32:45;82.28;;;23.55;;
54575;SDS011;40472;53.486;14.542;2022-10-15T04:35:11;52.53;;;21.67;;
54575;SDS011;40472;53.486;14.542;2022-10-15T04:37:36;49.42;;;20.83;;
54575;SDS011;40472;53.486;14.542;2022-10-15T04:40:02;47.55;;;22.48;;
54575;SDS011;40472;53.486;14.542;2022-10-15T04:42:29;49.40;;;22.20;;
54575;SDS011;40472;53.486;14.542;2022-10-15T04:44:55;45.00;;;19.75;;
54575;SDS011;40472;53.486;14.542;2022-10-15T04:47:21;44.10;;;19.83;;
54575;SDS011;40472;53.486;14.542;2022-10-15T04:49:47;54.50;;;21.00;;
54575;SDS011;40472;53.486;14.542;2022-10-15T04:52:13;46.65;;;20.83;;
54575;SDS011;40472;53.486;14.542;2022-10-15T04:54:39;50.47;;;20.40;;
54575;SDS011;40472;53.486;14.542;2022-10-15T04:57:04;68.85;;;20.58;;
54575;SDS011;40472;53.486;14.542;2022-10-15T04:59:31;55.80;;;16.95;;
54575;SDS011;40472;53.486;14.542;2022-10-15T05:01:57;115.00;;;23.23;;
54575;SDS011;40472;53.486;14.542;2022-10-15T05:04:22;57.85;;;20.92;;
54575;SDS011;40472;53.486;14.542;2022-10-15T05:06:48;57.42;;;22.73;;
54575;SDS011;40472;53.486;14.542;2022-10-15T05:09:14;57.25;;;20.40;;
54575;SDS011;40472;53.486;14.542;2022-10-15T05:11:40;47.88;;;20.10;;
54575;SDS011;40472;53.486;14.542;2022-10-15T05:14:05;47.05;;;19.45;;
54575;SDS011;40472;53.486;14.542;2022-10-15T05:16:32;105.78;;;23.08;;
54575;SDS011;40472;53.486;14.542;2022-10-15T05:18:58;91.47;;;22.70;;
54575;SDS011;40472;53.486;14.542;2022-10-15T05:21:26;58.20;;;19.63;;
54575;SDS011;40472;53.486;14.542;2022-10-15T05:23:52;90.75;;;22.88;;
54575;SDS011;40472;53.486;14.542;2022-10-15T05:26:18;102.03;;;24.45;;
54575;SDS011;40472;53.486;14.542;2022-10-15T05:28:47;74.28;;;24.15;;
54575;SDS011;40472;53.486;14.542;2022-10-15T05:31:14;45.20;;;20.58;;
54575;SDS011;40472;53.486;14.542;2022-10-15T05:33:41;58.42;;;23.88;;
54575;SDS011;40472;53.486;14.542;2022-10-15T05:36:14;57.25;;;23.90;;
54575;SDS011;40472;53.486;14.542;2022-10-15T05:38:44;56.72;;;23.13;;
54575;SDS011;40472;53.486;14.542;2022-10-15T05:41:11;58.45;;;25.33;;
54575;SDS011;40472;53.486;14.542;2022-10-15T05:43:36;57.80;;;23.77;;
54575;SDS011;40472;53.486;14.542;2022-10-15T05:46:02;57.92;;;23.95;;
54575;SDS011;40472;53.486;14.542;2022-10-15T05:48:28;47.35;;;22.25;;
54575;SDS011;40472;53.486;14.542;2022-10-15T05:50:59;64.43;;;27.15;;
54575;SDS011;40472;53.486;14.542;2022-10-15T05:53:28;50.75;;;23.13;;
54575;SDS011;40472;53.486;14.542;2022-10-15T05:55:55;49.85;;;19.77;;
54575;SDS011;40472;53.486;14.542;2022-10-15T05:58:23;55.83;;;24.05;;
54575;SDS011;40472;53.486;14.542;2022-10-15T06:00:55;60.47;;;25.00;;
54575;SDS011;40472;53.486;14.542;2022-10-15T06:03:22;52.33;;;23.40;;
54575;SDS011;40472;53.486;14.542;2022-10-15T06:05:48;57.22;;;24.17;;
54575;SDS011;40472;53.486;14.542;2022-10-15T06:08:15;48.83;;;21.45;;
54575;SDS011;40472;53.486;14.542;2022-10-15T06:10:41;47.92;;;21.38;;
54575;SDS011;40472;53.486;14.542;2022-10-15T06:13:07;40.25;;;17.88;;
54575;SDS011;40472;53.486;14.542;2022-10-15T06:15:33;53.38;;;23.27;;
54575;SDS011;40472;53.486;14.542;2022-10-15T06:17:59;49.47;;;24.55;;
54575;SDS011;40472;53.486;14.542;2022-10-15T06:20:25;60.83;;;25.63;;
54575;SDS011;40472;53.486;14.542;2022-10-15T06:22:55;39.67;;;17.92;;
54575;SDS011;40472;53.486;14.542;2022-10-15T06:25:24;60.25;;;26.05;;
54575;SDS011;40472;53.486;14.542;2022-10-15T06:27:50;59.38;;;24.77;;
54575;SDS011;40472;53.486;14.542;2022-10-15T06:30:16;57.70;;;24.27;;
54575;SDS011;40472;53.486;14.542;2022-10-15T06:32:51;53.95;;;25.33;;
54575;SDS011;40472;53.486;14.542;2022-10-15T06:35:18;52.28;;;24.10;;
54575;SDS011;40472;53.486;14.542;2022-10-15T06:37:46;95.30;;;29.25;;
54575;SDS011;40472;53.486;14.542;2022-10-15T06:40:12;40.20;;;17.23;;
54575;SDS011;40472;53.486;14.542;2022-10-15T06:42:38;64.07;;;24.42;;
54575;SDS011;40472;53.486;14.542;2022-10-15T06:45:04;52.83;;;24.00;;
54575;SDS011;40472;53.486;14.542;2022-10-15T06:47:31;62.92;;;22.55;;
54575;SDS011;40472;53.486;14.542;2022-10-15T06:49:57;56.72;;;20.63;;
54575;SDS011;40472;53.486;14.542;2022-10-15T06:52:23;52.65;;;20.55;;
54575;SDS011;40472;53.486;14.542;2022-10-15T06:54:49;72.13;;;23.27;;
54575;SDS011;40472;53.486;14.542;2022-10-15T06:57:16;71.30;;;21.52;;
54575;SDS011;40472;53.486;14.542;2022-10-15T06:59:41;51.42;;;21.90;;
54575;SDS011;40472;53.486;14.542;2022-10-15T07:02:08;64.80;;;22.85;;
54575;SDS011;40472;53.486;14.542;2022-10-15T07:04:34;56.22;;;23.45;;
54575;SDS011;40472;53.486;14.542;2022-10-15T07:07:00;56.33;;;22.45;;
54575;SDS011;40472;53.486;14.542;2022-10-15T07:09:26;64.22;;;25.30;;
54575;SDS011;40472;53.486;14.542;2022-10-15T07:11:52;62.58;;;24.40;;
54575;SDS011;40472;53.486;14.542;2022-10-15T07:14:18;59.60;;;24.00;;
54575;SDS011;40472;53.486;14.542;2022-10-15T07:16:43;55.35;;;21.35;;
54575;SDS011;40472;53.486;14.542;2022-10-15T07:19:09;51.58;;;17.27;;
54575;SDS011;40472;53.486;14.542;2022-10-15T07:21:35;65.80;;;23.30;;
54575;SDS011;40472;53.486;14.542;2022-10-15T07:24:01;69.00;;;18.65;;
54575;SDS011;40472;53.486;14.542;2022-10-15T07:26:26;53.88;;;20.83;;
54575;SDS011;40472;53.486;14.542;2022-10-15T07:28:55;51.33;;;20.55;;
54575;SDS011;40472;53.486;14.542;2022-10-15T07:31:21;66.25;;;19.85;;
54575;SDS011;40472;53.486;14.542;2022-10-15T07:33:47;52.97;;;21.00;;
54575;SDS011;40472;53.486;14.542;2022-10-15T07:36:13;71.13;;;21.00;;
54575;SDS011;40472;53.486;14.542;2022-10-15T07:38:39;66.32;;;19.85;;
54575;SDS011;40472;53.486;14.542;2022-10-15T07:41:06;52.70;;;21.83;;
54575;SDS011;40472;53.486;14.542;2022-10-15T07:43:33;55.63;;;19.95;;
54575;SDS011;40472;53.486;14.542;2022-10-15T07:46:00;53.47;;;23.10;;
54575;SDS011;40472;53.486;14.542;2022-10-15T07:48:26;52.97;;;21.98;;
54575;SDS011;40472;53.486;14.542;2022-10-15T07:50:55;52.10;;;23.08;;
54575;SDS011;40472;53.486;14.542;2022-10-15T07:53:21;46.38;;;20.77;;
54575;SDS011;40472;53.486;14.542;2022-10-15T07:55:47;31.05;;;15.00;;
54575;SDS011;40472;53.486;14.542;2022-10-15T07:58:13;51.33;;;23.48;;
54575;SDS011;40472;53.486;14.542;2022-10-15T08:00:39;47.20;;;22.30;;
54575;SDS011;40472;53.486;14.542;2022-10-15T08:03:05;47.78;;;20.52;;
54575;SDS011;40472;53.486;14.542;2022-10-15T08:05:30;57.72;;;22.95;;
54575;SDS011;40472;53.486;14.542;2022-10-15T08:07:58;46.65;;;20.58;;
54575;SDS011;40472;53.486;14.542;2022-10-15T08:10:24;42.00;;;19.85;;
54575;SDS011;40472;53.486;14.542;2022-10-15T08:12:50;40.70;;;21.05;;
54575;SDS011;40472;53.486;14.542;2022-10-15T08:15:15;50.10;;;23.40;;
54575;SDS011;40472;53.486;14.542;2022-10-15T08:17:41;50.70;;;22.15;;
54575;SDS011;40472;53.486;14.542;2022-10-15T08:20:07;41.80;;;20.52;;
54575;SDS011;40472;53.486;14.542;2022-10-15T08:22:34;47.00;;;22.05;;
54575;SDS011;40472;53.486;14.542;2022-10-15T08:24:59;23.30;;;13.70;;
54575;SDS011;40472;53.486;14.542;2022-10-15T08:27:25;49.75;;;21.50;;
54575;SDS011;40472;53.486;14.542;2022-10-15T08:29:51;45.55;;;19.92;;
54575;SDS011;40472;53.486;14.542;2022-10-15T08:32:17;50.08;;;23.20;;
54575;SDS011;40472;53.486;14.542;2022-10-15T08:34:42;37.28;;;16.75;;
54575;SDS011;40472;53.486;14.542;2022-10-15T08:37:08;42.80;;;21.73;;
54575;SDS011;40472;53.486;14.542;2022-10-15T08:39:34;41.88;;;21.33;;
54575;SDS011;40472;53.486;14.542;2022-10-15T08:42:01;54.42;;;24.88;;
54575;SDS011;40472;53.486;14.542;2022-10-15T08:44:52;41.90;;;21.20;;
54575;SDS011;40472;53.486;14.542;2022-10-15T08:49:59;44.83;;;21.20;;
54575;SDS011;40472;53.486;14.542;2022-10-15T08:55:02;49.10;;;24.48;;
54575;SDS011;40472;53.486;14.542;2022-10-15T09:00:49;32.88;;;15.45;;
54575;SDS011;40472;53.486;14.542;2022-10-15T09:03:30;45.22;;;19.48;;
54575;SDS011;40472;53.486;14.542;2022-10-15T09:06:13;49.78;;;22.85;;
54575;SDS011;40472;53.486;14.542;2022-10-15T09:11:14;40.17;;;20.80;;
54575;SDS011;40472;53.486;14.542;2022-10-15T09:13:47;40.83;;;20.52;;
54575;SDS011;40472;53.486;14.542;2022-10-15T09:18:47;47.22;;;22.77;;
54575;SDS011;40472;53.486;14.542;2022-10-15T09:21:16;40.10;;;21.48;;
54575;SDS011;40472;53.486;14.542;2022-10-15T09:23:44;37.75;;;19.45;;
54575;SDS011;40472;53.486;14.542;2022-10-15T09:26:21;38.63;;;18.77;;
54575;SDS011;40472;53.486;14.542;2022-10-15T09:29:02;34.45;;;16.45;;
54575;SDS011;40472;53.486;14.542;2022-10-15T09:31:54;36.58;;;17.35;;
54575;SDS011;40472;53.486;14.542;2022-10-15T09:34:44;33.08;;;16.35;;
54575;SDS011;40472;53.486;14.542;2022-10-15T09:37:28;28.33;;;16.48;;
54575;SDS011;40472;53.486;14.542;2022-10-15T09:40:02;42.40;;;19.60;;
54575;SDS011;40472;53.486;14.542;2022-10-15T09:42:44;32.72;;;18.30;;
54575;SDS011;40472;53.486;14.542;2022-10-15T09:45:14;32.22;;;17.42;;
54575;SDS011;40472;53.486;14.542;2022-10-15T09:47:41;32.60;;;17.20;;
54575;SDS011;40472;53.486;14.542;2022-10-15T09:50:11;31.85;;;16.38;;
54575;SDS011;40472;53.486;14.542;2022-10-15T09:53:41;34.90;;;17.52;;
54575;SDS011;40472;53.486;14.542;2022-10-15T09:58:19;31.67;;;16.60;;
54575;SDS011;40472;53.486;14.542;2022-10-15T10:00:52;28.83;;;14.65;;
54575;SDS011;40472;53.486;14.542;2022-10-15T10:03:27;26.50;;;15.05;;
54575;SDS011;40472;53.486;14.542;2022-10-15T10:05:59;24.90;;;13.75;;
54575;SDS011;40472;53.486;14.542;2022-10-15T10:11:11;28.00;;;15.10;;
54575;SDS011;40472;53.486;14.542;2022-10-15T10:16:13;27.75;;;15.90;;
54575;SDS011;40472;53.486;14.542;2022-10-15T10:18:40;28.70;;;15.32;;
54575;SDS011;40472;53.486;14.542;2022-10-15T10:21:27;31.52;;;16.80;;
54575;SDS011;40472;53.486;14.542;2022-10-15T10:24:19;29.30;;;14.57;;
54575;SDS011;40472;53.486;14.542;2022-10-15T10:26:43;20.55;;;11.90;;
54575;SDS011;40472;53.486;14.542;2022-10-15T10:29:11;28.20;;;14.23;;
54575;SDS011;40472;53.486;14.542;2022-10-15T10:31:43;22.70;;;13.23;;
54575;SDS011;40472;53.486;14.542;2022-10-15T10:34:11;28.25;;;15.27;;
54575;SDS011;40472;53.486;14.542;2022-10-15T10:36:41;30.25;;;14.57;;
54575;SDS011;40472;53.486;14.542;2022-10-15T10:44:47;27.70;;;16.55;;
54575;SDS011;40472;53.486;14.542;2022-10-15T10:47:23;28.13;;;16.70;;
54575;SDS011;40472;53.486;14.542;2022-10-15T10:49:51;29.00;;;15.82;;
54575;SDS011;40472;53.486;14.542;2022-10-15T10:52:32;28.15;;;14.48;;
54575;SDS011;40472;53.486;14.542;2022-10-15T10:57:48;23.88;;;12.57;;
54575;SDS011;40472;53.486;14.542;2022-10-15T11:02:33;26.27;;;14.32;;
54575;SDS011;40472;53.486;14.542;2022-10-15T11:05:03;25.15;;;13.63;;
54575;SDS011;40472;53.486;14.542;2022-10-15T11:10:24;21.48;;;13.48;;
54575;SDS011;40472;53.486;14.542;2022-10-15T11:13:23;17.55;;;10.07;;
54575;SDS011;40472;53.486;14.542;2022-10-15T11:15:55;11.43;;;7.15;;
54575;SDS011;40472;53.486;14.542;2022-10-15T11:21:20;23.63;;;10.23;;
54575;SDS011;40472;53.486;14.542;2022-10-15T11:40:20;15.80;;;9.65;;
54575;SDS011;40472;53.486;14.542;2022-10-15T11:42:56;16.52;;;10.45;;
54575;SDS011;40472;53.486;14.542;2022-10-15T11:48:29;19.80;;;9.07;;
54575;SDS011;40472;53.486;14.542;2022-10-15T11:53:50;14.73;;;8.88;;
54575;SDS011;40472;53.486;14.542;2022-10-15T11:56:21;16.42;;;9.82;;
54575;SDS011;40472;53.486;14.542;2022-10-15T12:02:09;14.98;;;8.52;;
54575;SDS011;40472;53.486;14.542;2022-10-15T12:04:48;15.07;;;8.43;;
54575;SDS011;40472;53.486;14.542;2022-10-15T12:07:19;16.92;;;10.40;;
54575;SDS011;40472;53.486;14.542;2022-10-15T12:09:51;11.95;;;6.32;;
54575;SDS011;40472;53.486;14.542;2022-10-15T12:12:25;13.80;;;6.93;;
54575;SDS011;40472;53.486;14.542;2022-10-15T12:17:28;13.02;;;7.90;;
54575;SDS011;40472;53.486;14.542;2022-10-15T12:20:15;10.82;;;5.53;;
54575;SDS011;40472;53.486;14.542;2022-10-15T12:27:58;11.98;;;6.68;;
54575;SDS011;40472;53.486;14.542;2022-10-15T12:30:41;13.30;;;7.72;;
54575;SDS011;40472;53.486;14.542;2022-10-15T12:35:56;9.95;;;5.53;;
54575;SDS011;40472;53.486;14.542;2022-10-15T12:38:26;11.82;;;6.30;;
54575;SDS011;40472;53.486;14.542;2022-10-15T12:40:55;9.60;;;5.63;;
54575;SDS011;40472;53.486;14.542;2022-10-15T12:43:26;12.43;;;7.13;;
54575;SDS011;40472;53.486;14.542;2022-10-15T12:45:57;14.23;;;8.50;;
54575;SDS011;40472;53.486;14.542;2022-10-15T12:48:30;12.15;;;7.25;;
54575;SDS011;40472;53.486;14.542;2022-10-15T12:53:47;16.50;;;9.93;;
54575;SDS011;40472;53.486;14.542;2022-10-15T13:03:42;12.00;;;7.85;;
54575;SDS011;40472;53.486;14.542;2022-10-15T13:08:52;17.27;;;10.93;;
54575;SDS011;40472;53.486;14.542;2022-10-15T13:11:31;15.15;;;10.05;;
54575;SDS011;40472;53.486;14.542;2022-10-15T13:14:01;16.40;;;10.00;;
54575;SDS011;40472;53.486;14.542;2022-10-15T13:16:42;14.65;;;9.25;;
54575;SDS011;40472;53.486;14.542;2022-10-15T13:19:22;13.55;;;8.68;;
54575;SDS011;40472;53.486;14.542;2022-10-15T13:21:53;15.80;;;9.35;;
54575;SDS011;40472;53.486;14.542;2022-10-15T13:24:24;18.85;;;9.23;;
54575;SDS011;40472;53.486;14.542;2022-10-15T13:26:55;17.05;;;9.55;;
54575;SDS011;40472;53.486;14.542;2022-10-15T13:29:26;14.38;;;8.43;;
54575;SDS011;40472;53.486;14.542;2022-10-15T13:31:53;17.73;;;9.85;;
54575;SDS011;40472;53.486;14.542;2022-10-15T13:37:12;13.55;;;7.93;;
54575;SDS011;40472;53.486;14.542;2022-10-15T13:39:48;15.00;;;9.98;;
54575;SDS011;40472;53.486;14.542;2022-10-15T13:42:20;14.40;;;9.65;;
54575;SDS011;40472;53.486;14.542;2022-10-15T13:52:58;13.70;;;8.77;;
54575;SDS011;40472;53.486;14.542;2022-10-15T13:55:31;20.40;;;8.80;;
54575;SDS011;40472;53.486;14.542;2022-10-15T13:58:04;14.65;;;8.82;;
54575;SDS011;40472;53.486;14.542;2022-10-15T14:00:41;16.75;;;9.25;;
54575;SDS011;40472;53.486;14.542;2022-10-15T14:03:17;14.68;;;9.68;;
54575;SDS011;40472;53.486;14.542;2022-10-15T14:05:49;14.43;;;8.93;;
54575;SDS011;40472;53.486;14.542;2022-10-15T14:08:21;13.13;;;8.05;;
54575;SDS011;40472;53.486;14.542;2022-10-15T14:10:50;15.73;;;8.77;;
54575;SDS011;40472;53.486;14.542;2022-10-15T14:13:17;13.05;;;7.15;;
54575;SDS011;40472;53.486;14.542;2022-10-15T14:18:37;14.50;;;8.60;;
54575;SDS011;40472;53.486;14.542;2022-10-15T14:21:10;14.35;;;9.25;;
54575;SDS011;40472;53.486;14.542;2022-10-15T14:23:38;15.23;;;8.75;;
54575;SDS011;40472;53.486;14.542;2022-10-15T14:26:07;14.02;;;8.00;;
54575;SDS011;40472;53.486;14.542;2022-10-15T14:28:35;15.25;;;8.38;;
54575;SDS011;40472;53.486;14.542;2022-10-15T14:31:04;16.00;;;9.07;;
54575;SDS011;40472;53.486;14.542;2022-10-15T14:33:32;14.93;;;8.50;;
54575;SDS011;40472;53.486;14.542;2022-10-15T14:36:10;13.65;;;8.00;;
54575;SDS011;40472;53.486;14.542;2022-10-15T14:38:38;14.00;;;8.45;;
54575;SDS011;40472;53.486;14.542;2022-10-15T14:44:04;12.05;;;7.65;;
54575;SDS011;40472;53.486;14.542;2022-10-15T14:46:38;13.55;;;8.38;;
54575;SDS011;40472;53.486;14.542;2022-10-15T14:49:39;15.15;;;8.82;;
54575;SDS011;40472;53.486;14.542;2022-10-15T14:52:00;19.00;;;8.10;;
54575;SDS011;40472;53.486;14.542;2022-10-15T14:54:38;14.45;;;8.30;;
54575;SDS011;40472;53.486;14.542;2022-10-15T15:00:08;13.40;;;8.02;;
54575;SDS011;40472;53.486;14.542;2022-10-15T15:02:45;13.57;;;8.68;;
54575;SDS011;40472;53.486;14.542;2022-10-15T15:07:38;17.45;;;8.55;;
54575;SDS011;40472;53.486;14.542;2022-10-15T15:10:07;13.18;;;7.63;;
54575;SDS011;40472;53.486;14.542;2022-10-15T15:12:34;14.57;;;8.52;;
54575;SDS011;40472;53.486;14.542;2022-10-15T15:15:13;12.93;;;7.80;;
54575;SDS011;40472;53.486;14.542;2022-10-15T15:18:43;12.77;;;8.40;;
54575;SDS011;40472;53.486;14.542;2022-10-15T15:21:19;13.50;;;8.63;;
54575;SDS011;40472;53.486;14.542;2022-10-15T15:23:46;17.33;;;10.35;;
54575;SDS011;40472;53.486;14.542;2022-10-15T15:26:13;17.02;;;10.57;;
54575;SDS011;40472;53.486;14.542;2022-10-15T15:28:43;15.98;;;9.55;;
54575;SDS011;40472;53.486;14.542;2022-10-15T15:31:13;18.90;;;10.65;;
54575;SDS011;40472;53.486;14.542;2022-10-15T15:33:41;18.52;;;9.50;;
54575;SDS011;40472;53.486;14.542;2022-10-15T15:36:14;15.40;;;9.48;;
54575;SDS011;40472;53.486;14.542;2022-10-15T15:38:41;9.75;;;6.53;;
54575;SDS011;40472;53.486;14.542;2022-10-15T15:41:11;19.70;;;11.25;;
54575;SDS011;40472;53.486;14.542;2022-10-15T15:43:37;17.45;;;9.68;;
54575;SDS011;40472;53.486;14.542;2022-10-15T15:46:04;14.23;;;10.23;;
54575;SDS011;40472;53.486;14.542;2022-10-15T15:48:32;14.25;;;9.98;;
54575;SDS011;40472;53.486;14.542;2022-10-15T15:51:00;15.85;;;10.25;;
54575;SDS011;40472;53.486;14.542;2022-10-15T15:53:27;14.80;;;10.20;;
54575;SDS011;40472;53.486;14.542;2022-10-15T15:55:55;13.93;;;10.45;;
54575;SDS011;40472;53.486;14.542;2022-10-15T15:58:21;16.20;;;11.15;;
54575;SDS011;40472;53.486;14.542;2022-10-15T16:00:47;14.98;;;10.40;;
54575;SDS011;40472;53.486;14.542;2022-10-15T16:03:13;15.45;;;9.75;;
54575;SDS011;40472;53.486;14.542;2022-10-15T16:05:39;15.90;;;10.88;;
54575;SDS011;40472;53.486;14.542;2022-10-15T16:08:07;18.63;;;11.77;;
54575;SDS011;40472;53.486;14.542;2022-10-15T16:10:34;18.85;;;11.65;;
54575;SDS011;40472;53.486;14.542;2022-10-15T16:13:00;18.35;;;12.68;;
54575;SDS011;40472;53.486;14.542;2022-10-15T16:15:26;20.27;;;12.95;;
54575;SDS011;40472;53.486;14.542;2022-10-15T16:17:52;19.98;;;12.93;;
54575;SDS011;40472;53.486;14.542;2022-10-15T16:20:19;25.30;;;13.85;;
54575;SDS011;40472;53.486;14.542;2022-10-15T16:22:48;21.85;;;14.40;;
54575;SDS011;40472;53.486;14.542;2022-10-15T16:25:14;19.13;;;13.02;;
54575;SDS011;40472;53.486;14.542;2022-10-15T16:27:40;20.50;;;13.07;;
54575;SDS011;40472;53.486;14.542;2022-10-15T16:30:09;23.30;;;15.05;;
54575;SDS011;40472;53.486;14.542;2022-10-15T16:32:35;22.52;;;14.55;;
54575;SDS011;40472;53.486;14.542;2022-10-15T16:35:01;23.35;;;14.10;;
54575;SDS011;40472;53.486;14.542;2022-10-15T16:37:27;23.10;;;15.32;;